Latest Coastal Weather Observations for Albion Park

IDN60701

Issued at 11:41 pm EDT Monday 23 January 2017 (issued every 10 minutes, with the page automatically refreshed every 10 minutes)

About coastal observations | Map of coastal stations | Coastal observations for NSW | Marine services | Other Formats
Station Details ID: 068241 Name: WOLLONGONG AIRPORT Lat: -34.56 Lon: 150.79 Height: 8.0 m
Data from the previous 72 hours. | See also: Recent months at Albion Park
Date/Time
EDT
Temp
°C
Wind Pressure Rain since
9am
mm
Weather Cloud Vis
km
Sea
Height
m
Swell
Dir  Spd
kts
Gust
kts
hPa Trend Height
m
Period
s
Dir
23/11:30pm 23.5 CALM 0 0 1007.8 - 0.0 - - 10 - - - -
23/11:00pm 23.5 CALM 0 3 1008.3 - 0.0 - Partly cloudy 10 - - - -
23/10:30pm 24.2 SSE 3 4 1008.4 - 0.0 - - 10 - - - -
23/10:00pm 25.0 E 5 6 1008.6 - 0.0 - - 10 - - - -
23/09:30pm 25.8 SSE 2 6 1008.4 - 0.0 - - 10 - - - -
23/09:00pm 26.0 ENE 3 4 1008.2 - 0.0 - Mostly cloudy 10 - - - -
23/08:30pm 26.1 ENE 7 9 1007.8 - 0.0 - - 10 - - - -
23/08:00pm 26.1 NE 8 11 1007.6 - 0.0 - - 10 - - - -
23/07:30pm 26.7 NE 9 13 1007.4 - 0.0 - - 10 - - - -
23/07:00pm 26.9 ENE 12 15 1007.2 - 0.0 - - 10 - - - -
23/06:30pm 27.3 ENE 12 16 1006.9 - 0.0 - - 10 - - - -
23/06:00pm 27.1 ENE 14 17 1007.0 - 0.0 - - 10 - - - -
23/05:30pm 27.1 NE 15 18 1006.9 - 0.0 - - 10 - - - -
23/05:00pm 27.0 ENE 14 17 1007.4 - 0.0 - - 10 - - - -
23/04:30pm 28.4 ENE 15 19 1007.8 - 0.0 - - 10 - - - -
23/04:00pm 28.2 ENE 14 18 1008.3 - 0.0 - - 10 - - - -
23/03:30pm 27.8 ENE 14 17 1008.9 - 0.0 - - 10 - - - -
23/03:00pm 27.7 ENE 14 18 1009.3 - 0.0 - - 10 - - - -
23/02:30pm 27.7 ENE 15 18 1009.6 - 0.0 - - 10 - - - -
23/02:00pm 27.5 ENE 14 18 1010.2 - 0.0 - - 10 - - - -
23/01:30pm 27.3 NE 17 21 1010.8 - 0.0 - - 10 - - - -
23/01:00pm 26.9 ENE 16 20 1011.3 - 0.0 - - 10 - - - -
23/12:30pm 27.2 NE 17 21 1011.5 - 0.0 - - 10 - - - -
23/12:00pm 27.6 NE 16 19 1011.8 - 0.0 - - 10 - - - -
23/11:30am 28.4 NE 15 19 1012.1 - 0.0 - - 10 - - - -
23/11:00am 27.5 ENE 14 17 1012.5 - 0.0 - - 10 - - - -
23/10:30am 27.4 ENE 12 16 1013.0 - 0.0 - - 10 - - - -
23/10:00am 27.7 NNE 8 11 1013.6 - 0.0 - - 10 - - - -
23/09:30am 26.1 N 9 18 1013.9 - 0.0 - - 10 - - - -
23/09:00am 25.3 NNE 9 12 1014.1 - 0.0 - - 10 - - - -
23/08:30am 24.4 N 10 14 1014.0 - 0.0 - - 10 - - - -
23/08:00am 23.7 N 10 13 1013.8 - 0.0 - - 10 - - - -
23/07:30am 23.0 N 9 13 1013.9 - 0.0 - - 10 - - - -
23/07:00am 22.4 NNW 7 9 1013.9 - 0.0 - Partly cloudy 10 - - - -
23/06:55am 22.3 NNW 7 9 1013.8 - 0.0 - Partly cloudy 10 - - - -
23/06:30am 21.9 N 6 7 1013.6 - 0.0 - Cloudy 10 - - - -
23/06:00am 21.9 N 5 8 1013.5 - 0.0 - Cloudy 10 - - - -
23/05:30am 21.9 NNW 5 6 1013.4 - 0.0 - Cloudy 10 - - - -
23/05:00am 22.4 N 5 8 1013.3 - 0.0 - Cloudy 10 - - - -
23/04:37am 22.4 N 5 7 1013.3 - 0.0 - Cloudy 10 - - - -
23/04:30am 22.4 N 5 6 1013.4 - 0.0 - Cloudy 10 - - - -
23/04:00am 22.5 N 5 7 1013.4 - 0.0 - Cloudy 10 - - - -
23/03:30am 22.6 N 5 8 1013.7 - 0.0 - Cloudy 10 - - - -
23/03:00am 22.5 N 5 7 1013.7 - 0.0 - Cloudy 10 - - - -
23/02:30am 22.3 N 5 8 1014.0 - 0.0 - Cloudy 10 - - - -
23/02:00am 20.2 NW 3 5 1014.4 - 0.0 - Cloudy 10 - - - -
23/01:30am 20.1 N 3 4 1014.7 - 0.0 - Cloudy 10 - - - -
23/01:00am 19.2 CALM 0 1 1015.2 - 0.0 - Cloudy 10 - - - -
23/12:30am 18.8 CALM 0 3 1015.5 - 0.0 - Cloudy 10 - - - -
23/12:00am 18.6 WNW 3 4 1015.5 - 0.0 - Mostly clear 10 - - - -
 
Date/Time
EDT
Temp
°C
Wind Pressure Rain since
9am
mm
Weather Cloud Vis
km
Sea
Height
m
Swell
Dir  Spd
kts
Gust
kts
hPa Trend Height
m
Period
s
Dir
22/11:30pm 18.8 W 3 4 1015.6 - 0.0 - Partly cloudy 10 - - - -
22/11:00pm 19.2 WNW 5 5 1015.7 - 0.0 - - 10 - - - -
22/10:30pm 20.0 W 4 4 1015.7 - 0.0 - - 10 - - - -
22/10:00pm 22.2 NNE 5 6 1015.6 - 0.0 - - 10 - - - -
22/09:30pm 22.5 N 6 9 1015.4 - 0.0 - - 10 - - - -
22/09:00pm 22.6 NNE 5 11 1015.3 - 0.0 - - 10 - - - -
22/08:30pm 23.1 NNE 9 12 1015.0 - 0.0 - - 10 - - - -
22/08:00pm 23.3 NNE 10 14 1014.9 - 0.0 - - 10 - - - -
22/07:30pm 23.9 NNE 9 14 1014.8 - 0.0 - - 10 - - - -
22/07:00pm 24.2 NE 11 16 1014.7 - 0.0 - - 10 - - - -
22/06:30pm 24.7 NE 13 17 1014.6 - 0.0 - - 10 - - - -
22/06:00pm 24.7 NE 12 17 1014.4 - 0.0 - - 10 - - - -
22/05:30pm 25.4 NE 13 17 1014.6 - 0.0 - - 10 - - - -
22/05:00pm 25.5 NE 15 19 1014.8 - 0.0 - - 10 - - - -
22/04:30pm 25.4 NE 14 20 1014.9 - 0.0 - - 10 - - - -
22/04:00pm 25.5 NE 15 22 1015.0 - 0.0 - - 10 - - - -
22/03:30pm 26.1 NE 13 17 1015.3 - 0.0 - - 10 - - - -
22/03:00pm 25.3 ENE 11 16 1015.6 - 0.0 - - 10 - - - -
22/02:30pm 24.9 NE 12 14 1015.9 - 0.0 - - 10 - - - -
22/02:00pm 24.9 NE 12 16 1016.1 - 0.0 - - 10 - - - -
22/01:30pm 25.6 NE 12 14 1016.2 - 0.0 - - 10 - - - -
22/01:00pm 24.8 NE 12 15 1016.6 - 0.0 - - 10 - - - -
22/12:30pm 25.2 NE 12 16 1017.0 - 0.0 - - 10 - - - -
22/12:00pm 24.7 NE 11 15 1017.2 - 0.0 - - 10 - - - -
22/11:30am 23.9 NE 10 14 1017.2 - 0.0 - - 10 - - - -
22/11:00am 24.1 NE 10 12 1017.3 - 0.0 - - 10 - - - -
22/10:30am 24.2 NE 10 12 1017.4 - 0.0 - Partly cloudy 10 - - - -
22/10:00am 22.9 NE 8 11 1017.6 - 0.0 - - 10 - - - -
22/09:30am 23.1 ENE 7 8 1017.7 - 0.0 - - 10 - - - -
22/09:00am 22.6 NE 4 6 1017.9 - 0.0 - Mostly clear 10 - - - -
22/08:30am 22.2 S 3 5 1018.0 - 0.0 - - 10 - - - -
22/08:00am 20.9 SSW 1 3 1017.9 - 0.0 - Partly cloudy 10 - - - -
22/07:30am 19.0 CALM 0 0 1017.8 - 0.0 - Partly cloudy 10 - - - -
22/07:00am 17.5 CALM 0 0 1017.6 - 0.0 - Partly cloudy 10 - - - -
22/06:30am 15.7 CALM 0 0 1017.4 - 0.0 - Cloudy 10 - - - -
22/06:00am 15.5 CALM 0 0 1017.2 - 0.0 - Mostly cloudy 10 - - - -
22/05:30am 16.2 CALM 0 1 1017.1 - 0.0 - Cloudy 10 - - - -
22/05:00am 16.6 SSW 4 4 1016.9 - 0.0 - Cloudy 10 - - - -
22/04:30am 16.2 SSW 3 5 1016.6 - 0.0 - Cloudy 10 - - - -
22/04:00am 15.5 SSW 3 5 1016.8 - 0.0 - Cloudy 10 - - - -
22/03:30am 14.6 SSW 3 3 1016.9 - 0.0 - Cloudy 10 - - - -
22/03:00am 14.5 SSW 2 3 1017.1 - 0.0 - Mostly clear 10 - - - -
22/02:30am 14.4 SSW 2 3 1017.1 - 0.0 - - 10 - - - -
22/02:00am 15.0 SSW 4 5 1017.3 - 0.0 - - 10 - - - -
22/01:30am 14.8 S 3 5 1017.5 - 0.0 - - 10 - - - -
22/01:00am 16.0 S 2 4 1017.7 - 0.0 - Partly cloudy 10 - - - -
22/12:30am 16.2 S 1 3 1017.7 - 0.0 - - 10 - - - -
22/12:00am 17.6 S 3 4 1017.7 - 0.0 - - 10 - - - -
 
Date/Time
EDT
Temp
°C
Wind Pressure Rain since
9am
mm
Weather Cloud Vis
km
Sea
Height
m
Swell
Dir  Spd
kts
Gust
kts
hPa Trend Height
m
Period
s
Dir
21/11:30pm 18.5 S 5 7 1017.6 - 0.0 - Partly cloudy 10 - - - -
21/11:00pm 19.3 S 7 9 1017.6 - 0.0 - Partly cloudy 10 - - - -
21/10:30pm 19.9 S 7 11 1017.4 - 0.0 - Cloudy 10 - - - -
21/10:00pm 20.1 SSE 7 10 1017.4 - 0.0 - Cloudy 10 - - - -
21/09:30pm 20.3 SSE 7 11 1017.1 - 0.0 - Cloudy 10 - - - -
21/09:00pm 20.5 SSE 7 11 1016.9 - 0.0 - Cloudy 10 - - - -
21/08:30pm 20.7 SSE 7 12 1016.6 - 0.0 - Cloudy 10 - - - -
21/08:00pm 20.8 SE 8 12 1016.0 - 0.0 - Cloudy 10 - - - -
21/07:30pm 21.0 SE 8 13 1015.4 - 0.0 - Partly cloudy 10 - - - -
21/07:00pm 21.1 SE 9 13 1014.8 - 0.0 - Cloudy 10 - - - -
21/06:30pm 21.5 SE 10 13 1014.2 - 0.0 - Cloudy 10 - - - -
21/06:00pm 21.7 SE 10 16 1013.7 - 0.0 - Mostly cloudy 10 - - - -
21/05:30pm 22.0 ESE 11 15 1013.5 - 0.0 - Partly cloudy 10 - - - -
21/05:00pm 22.6 ESE 12 18 1013.1 - 0.0 - Partly cloudy 10 - - - -
21/04:30pm 23.7 ESE 11 16 1013.0 - 0.0 - Partly cloudy 10 - - - -
21/04:00pm 23.7 ESE 11 19 1012.9 - 0.0 - - 10 - - - -
21/03:30pm 23.3 ESE 11 17 1012.7 - 0.0 - - 10 - - - -
21/03:00pm 24.1 ESE 14 21 1012.6 - 0.0 - - 10 - - - -
21/02:30pm 23.7 SE 13 18 1012.3 - 0.0 - - 10 - - - -
21/02:00pm 23.8 ESE 12 19 1012.0 - 0.0 - - 10 - - - -
21/01:30pm 24.2 ESE 13 18 1011.9 - 0.0 - - 10 - - - -
21/01:00pm 24.7 ESE 12 19 1011.7 - 0.0 - - 10 - - - -
21/12:30pm 24.8 ESE 13 19 1011.6 - 0.0 - - 10 - - - -
21/12:00pm 25.1 SE 12 19 1011.3 - 0.0 - - 10 - - - -
21/11:30am 25.1 S 12 17 1011.2 - 0.0 - - 10 - - - -
21/11:00am 25.4 SE 9 15 1011.1 - 0.0 - - 10 - - - -
21/10:30am 24.7 SSE 9 14 1011.3 - 0.0 - - 10 - - - -
21/10:00am 24.4 S 9 13 1011.1 - 0.0 - - 10 - - - -
21/09:30am 23.6 SSE 10 16 1010.9 - 0.0 - - 10 - - - -
21/09:00am 23.0 S 10 14 1010.8 - 2.4 - - 10 - - - -
21/08:30am 22.7 S 8 15 1010.4 - 2.4 - - 10 - - - -
21/08:00am 20.0 SW 5 5 1010.1 - 2.4 - Partly cloudy 10 - - - -
21/07:30am 19.0 SW 4 5 1009.5 - 2.4 - Partly cloudy 10 - - - -
21/07:00am 16.6 WSW 5 6 1008.9 - 2.4 - - 10 - - - -
21/06:30am 15.1 CALM 0 0 1008.4 - 2.4 - - 10 - - - -
21/06:00am 14.7 S 4 6 1007.7 - 2.4 - - 10 - - - -
21/05:30am 15.2 S 3 6 1007.0 - 2.4 - - 10 - - - -
21/05:00am 16.5 S 4 6 1006.5 - 2.4 - - 10 - - - -
21/04:30am 18.3 S 3 5 1006.0 - 2.4 - - 10 - - - -
21/04:00am 19.9 SSW 5 9 1005.7 - 2.4 - Partly cloudy 10 - - - -
21/03:30am 20.3 S 11 15 1005.3 - 2.4 - Partly cloudy 10 - - - -
21/03:00am 21.0 S 9 14 1005.2 - 2.4 - Partly cloudy 10 - - - -
21/02:30am 21.7 SSW 13 19 1004.9 - 2.4 - Partly cloudy 10 - - - -
21/02:00am 21.7 SSW 8 11 1004.5 - 2.4 - Cloudy 10 - - - -
21/01:30am 22.0 SSW 9 14 1004.0 - 2.4 - Cloudy 10 - - - -
21/01:00am 22.4 S 13 18 1003.5 - 2.4 - Partly cloudy 10 - - - -
21/12:30am 22.3 S 11 15 1003.0 - 2.4 - Partly cloudy 10 - - - -
21/12:00am 22.5 S 10 18 1002.7 - 2.4 - Cloudy 10 - - - -

Other Formats:

Comma delimited format used in spreadsheet applications
http://www.bom.gov.au/fwo/IDN60701/IDN60701.95748.axf

JavaScript Object Notation format (JSON) in row-major order
http://www.bom.gov.au/fwo/IDN60701/IDN60701.95748.json